Jackson, Minnesota
Current Conditions -  °F | °C
As of 7:14 PM on Tuesday 25 Nov 2014 (Local Time) from KMJQ Reporting Station
Clear Clear  
Wind Chill: 21°   Ceiling: Unl
Heat Index: 30°   Visibility: 10mi
Dew Point: 14°   Wind: 12mph
Humidity: 51%   Direction: 150°SSE
Pressure: 29.93"   Gusts: NA
Location:  43.62°N, 94.99°W
Report Text: KMJQ 260114Z AUTO 15010KT 10SM CLR M01/M10 A2993 RMK AO2
Loading
Personal Weather Stations






























Interactive Weather Map New forecast layout! Learn more

10-Day Weather Forecast

Advertisements
Track Severe Weather on mobile